• Join FlightAware (Why Join?)
  • Login
  • US Flag 
09:54PM EST


 

Airport Tracker/Info


-or-


 

Live Flight TrackerFlight Track Log ✈ ASH2834 ✈ 29-Apr-2013 ✈ KLGB - KPHX

Flight Track Log - Related Links

Times and Time Zones

All times are in EDT time to prevent confusion due to time zone crossing. See the ASH2834 flight status page for this flight to view local times or setup timezone preferences in your user account.

Time Position Orientation Groundspeed Altitude Reporting Facility
EDT Latitude Longitude Course Direction KTS MPH feet Rate Location/Type
10:34PM 33.8442 -118.1881 90° East 175 201 2,000  Level Los Angeles Center
10:35PM 33.8000 -118.2242 214° Southwest 219 252 5,500 3,220 Climbing Los Angeles Center
10:36PM 33.7419 -118.2444 196° South 212 244 8,600 2,419 Climbing Los Angeles Center
10:37PM 33.5833 -118.0245 90° East  Level FlightAware Approximate
10:37PM 33.6678 -118.2542 186° South 289 333 10,500  Level Los Angeles Center
10:38PM 33.5834 -117.8986 90° East  Level FlightAware Approximate
10:38PM 33.6336 -118.1572 113° Southeast 331 381 12,700  Level Los Angeles Center
10:39PM 33.5833 -117.7727 90° East  Level FlightAware Approximate
10:39PM 33.6172 -118.0431 100° East 353 406 15,600  Level Los Angeles Center
10:40PM 33.6206 -117.9253 88° East 359 413 18,400 2,927 Climbing Los Angeles Center
10:41PM 33.6222 -117.7764 89° East 370 426 21,600 2,274 Climbing Los Angeles Center
10:42PM 33.6242 -117.6500 89° East 378 435 23,100 1,854 Climbing Los Angeles Center
10:43PM 33.6261 -117.5194 89° East 389 448 25,400 2,098 Climbing Los Angeles Center
10:44PM 33.6258 -117.3875 90° East 395 455 27,400 1,790 Climbing Los Angeles Center
10:46PM 33.6278 -117.2522 89° East 402 463 29,100 1,415 Climbing Los Angeles Center
10:47PM 33.6281 -117.1114 90° East 416 479 30,300 927 Climbing Los Angeles Center
10:48PM 33.6283 -116.9661 90° East 431 496 31,000 341 Climbing Los Angeles Center
10:49PM 33.6289 -116.8047 90° East 440 506 31,000  Level Los Angeles Center
10:50PM 33.6297 -116.6600 90° East 436 502 31,000  Level Los Angeles Center
10:51PM 33.6297 -116.5158 90° East 433 498 31,000  Level Los Angeles Center
10:52PM 33.6294 -116.3711 90° East 432 497 31,000  Level Los Angeles Center
10:53PM 33.6283 -116.2264 90° East 433 498 31,000  Level Los Angeles Center
10:54PM 33.6258 -116.0497 91° East 438 504 31,000  Level Los Angeles Center
10:55PM 33.6228 -115.9053 91° East 434 499 31,000  Level Los Angeles Center
10:56PM 33.6206 -115.7614 91° East 432 497 31,000  Level Los Angeles Center
10:57PM 33.6164 -115.6167 92° East 433 498 31,000 -49 Level Los Angeles Center
10:58PM 33.6094 -115.4708 93° East 438 504 30,900  Descending Los Angeles Center
10:59PM 33.5939 -115.3281 97° East 433 498 31,000 49 Climbing Los Angeles Center
11:00PM 33.5792 -115.1869 97° East 427 491 31,000  Level Los Angeles Center
11:01PM 33.5667 -115.0436 96° East 432 497 31,000  Level Los Angeles Center
11:02PM 33.5508 -114.9008 98° East 434 499 31,000  Level Los Angeles Center
11:03PM 33.5333 -114.7308 97° East 429 494 31,000  Level Los Angeles Center
11:04PM 33.5158 -114.5878 98° East 437 503 31,000  Level Los Angeles Center
11:04PM 33.5144 -114.5372 92° East 431 496 31,000 -391 Level Albuquerque Center
11:06PM 33.4944 -114.3664 98° East 431 496 30,400 -1,820 Descending Albuquerque Center
11:07PM 33.4797 -114.2203 97° East 439 505 27,300 -2,634 Descending Albuquerque Center
11:08PM 33.4636 -114.0800 98° East 430 495 25,000 -1,122 Descending Albuquerque Center
11:09PM 33.4378 -113.9483 103° East 411 473 25,000  Level Albuquerque Center
11:10PM 33.4106 -113.8158 104° East 411 473 25,000  Level Albuquerque Center
11:11PM 33.3833 -113.6822 104° East 412 474 25,000 -836 Level Albuquerque Center
11:12PM 33.3569 -113.5506 103° East 409 471 23,300 -1,820 Descending Albuquerque Center
11:13PM 33.3311 -113.4242 104° East 397 457 21,300 -1,951 Descending Albuquerque Center
11:14PM 33.3047 -113.2989 104° East 391 450 19,300 -2,098 Descending Albuquerque Center
11:15PM 33.2808 -113.1794 103° East 377 434 17,000 -2,066 Descending Albuquerque Center
11:16PM 33.2753 -113.0686 93° East 342 394 15,100 -984 Descending Albuquerque Center
11:17PM 33.2775 -112.9583 89° East 331 381 15,000 -49 Descending Albuquerque Center
11:18PM 33.2803 -112.8289 88° East 326 375 15,000  Level Albuquerque Center
11:19PM 33.2825 -112.7247 89° East 318 366 15,000 -341 Level Albuquerque Center
11:20PM 33.2850 -112.6222 88° East 312 359 14,300 -927 Descending Albuquerque Center
11:21PM 33.2875 -112.5314 88° East 308 354 13,100 -1,230 Descending Albuquerque Center
11:22PM 33.2906 -112.4269 88° East 315 362 11,800 -1,377 Descending Albuquerque Center
11:23PM 33.2953 -112.3047 87° East 308 354 10,300 -1,328 Descending Albuquerque Center
11:24PM 33.3028 -112.2036 85° East 307 353 9,100 -634 Descending Albuquerque Center
11:25PM 33.3103 -112.1128 84° East 277 319 9,000 -537 Descending Albuquerque Center
11:26PM 33.3278 -112.0311 76° East 258 297 8,000 -984 Descending Albuquerque Center
11:27PM 33.3464 -111.9500 75° East 254 292 7,000 -984 Descending Albuquerque Center
11:28PM 33.3589 -111.8692 79° East 249 287 6,000 -1,171 Descending Albuquerque Center
11:29PM 33.4178 -111.8419 21° North 231 266 4,600 -1,355 Descending Albuquerque Center